createdAt,value
2023-05-12T05:06:53.515Z,100340.00
2023-05-12T05:10:01.601Z,100344.00
2023-05-12T05:12:55.204Z,100346.00
2023-05-12T05:16:03.615Z,100348.00
2023-05-12T05:18:58.357Z,100352.00
2023-05-12T05:21:57.899Z,100354.00
2023-05-12T05:24:59.006Z,100356.00
2023-05-12T05:27:59.870Z,100356.00
2023-05-12T05:31:01.045Z,100356.00
2023-05-12T05:34:01.924Z,100358.00
2023-05-12T05:37:03.045Z,100364.00
2023-05-12T05:40:03.898Z,100368.00
2023-05-12T05:43:05.049Z,100370.00
2023-05-12T05:46:05.932Z,100372.00
2023-05-12T05:49:07.060Z,100372.00
2023-05-12T05:52:08.007Z,100378.00
2023-05-12T05:55:09.104Z,100376.00
2023-05-12T05:58:09.978Z,100376.00
2023-05-12T06:01:11.106Z,100372.00
2023-05-12T06:04:12.015Z,100376.00
2023-05-12T06:07:13.295Z,100380.00
2023-05-12T06:10:13.650Z,100384.00
2023-05-12T06:13:14.778Z,100386.00
2023-05-12T06:16:15.875Z,100386.00
2023-05-12T06:19:16.526Z,100389.00
2023-05-12T06:22:17.461Z,100395.00
2023-05-12T06:25:18.780Z,100399.00
2023-05-12T06:28:19.282Z,100401.00
2023-05-12T06:31:20.529Z,100401.00
2023-05-12T06:34:20.917Z,100401.00
2023-05-12T06:37:22.114Z,100401.00
2023-05-12T06:40:22.946Z,100407.00
2023-05-12T06:43:24.131Z,100405.00
2023-05-12T06:46:25.046Z,100405.00
2023-05-12T06:49:26.147Z,100413.00
2023-05-12T06:52:27.094Z,100409.00
2023-05-12T06:55:28.188Z,100409.00
2023-05-12T06:58:29.073Z,100413.00
2023-05-12T07:01:30.246Z,100413.00
2023-05-12T07:04:31.171Z,100415.00
2023-05-12T07:07:32.320Z,100415.00
2023-05-12T07:10:33.196Z,100417.00
2023-05-12T07:13:34.315Z,100415.00
2023-05-12T07:16:35.427Z,100413.00
2023-05-12T07:19:36.068Z,100415.00
2023-05-12T07:22:38.806Z,100413.00
2023-05-12T07:25:37.441Z,100415.00
2023-05-12T07:28:38.594Z,100415.00
2023-05-12T07:31:39.511Z,100417.00
2023-05-12T07:34:40.648Z,100415.00
2023-05-12T07:37:41.536Z,100415.00
2023-05-12T07:40:42.696Z,100415.00
2023-05-12T07:43:43.596Z,100417.00
2023-05-12T07:46:44.739Z,100413.00
2023-05-12T07:49:45.602Z,100413.00
2023-05-12T07:52:46.924Z,100421.00
2023-05-12T07:55:47.252Z,100417.00
2023-05-12T07:58:48.397Z,100419.00
2023-05-12T08:01:49.287Z,100421.00
2023-05-12T08:04:50.443Z,100421.00
2023-05-12T08:07:51.377Z,100417.00
2023-05-12T08:10:52.505Z,100417.00
2023-05-12T08:13:53.346Z,100423.00
2023-05-12T08:16:54.594Z,100417.00
2023-05-12T08:19:54.942Z,100423.00
2023-05-12T08:22:56.248Z,100423.00
2023-05-12T08:25:56.577Z,100419.00
2023-05-12T08:28:57.758Z,100415.00
2023-05-12T08:31:58.629Z,100415.00
2023-05-12T08:34:59.769Z,100419.00
2023-05-12T08:38:00.676Z,100425.00
2023-05-12T08:41:01.833Z,100427.00
2023-05-12T08:44:02.702Z,100431.00
2023-05-12T08:47:03.869Z,100429.00
2023-05-12T08:50:04.705Z,100431.00
2023-05-12T08:53:06.345Z,100431.00
2023-05-12T08:59:07.448Z,100431.00
2023-05-12T09:02:08.336Z,100429.00
2023-05-12T09:05:08.968Z,100425.00
2023-05-12T09:08:09.907Z,100421.00
2023-05-12T09:11:10.971Z,100421.00
2023-05-12T09:14:11.899Z,100421.00
2023-05-12T09:17:12.979Z,100423.00
2023-05-12T09:20:27.893Z,100423.00
2023-05-12T09:23:15.441Z,100419.00
2023-05-12T09:26:15.508Z,100413.00
2023-05-12T09:29:27.811Z,100415.00
2023-05-12T09:32:20.942Z,100419.00
2023-05-12T09:35:18.021Z,100421.00
2023-05-12T09:38:18.512Z,100419.00
2023-05-12T09:41:19.597Z,100415.00
2023-05-12T09:44:20.455Z,100411.00
2023-05-12T09:47:21.738Z,100411.00
2023-05-12T09:50:22.058Z,100409.00
2023-05-12T09:53:23.236Z,100405.00
2023-05-12T09:56:23.751Z,100407.00
2023-05-12T09:59:24.945Z,100403.00
2023-05-12T10:02:25.865Z,100407.00
2023-05-12T10:05:26.566Z,100407.00
2023-05-12T10:08:27.533Z,100407.00
2023-05-12T10:11:28.676Z,100405.00
2023-05-12T10:14:29.593Z,100409.00
2023-05-12T10:17:30.718Z,100409.00
2023-05-12T10:20:31.584Z,100407.00
2023-05-12T10:23:32.844Z,100407.00
2023-05-12T10:26:33.202Z,100409.00
2023-05-12T10:29:34.338Z,100403.00
2023-05-12T10:32:35.246Z,100407.00
2023-05-12T10:35:36.449Z,100409.00
2023-05-12T10:38:37.351Z,100407.00
2023-05-12T10:41:38.431Z,100403.00
2023-05-12T10:44:39.293Z,100407.00
2023-05-12T10:47:40.498Z,100403.00
2023-05-12T10:50:41.329Z,100403.00
2023-05-12T10:53:50.143Z,100405.00
2023-05-12T10:56:44.401Z,100405.00
2023-05-12T10:59:43.957Z,100409.00
2023-05-12T11:02:44.963Z,100409.00
2023-05-12T11:05:45.864Z,100405.00
2023-05-12T11:08:46.376Z,100407.00
2023-05-12T11:11:47.613Z,100409.00
2023-05-12T11:14:47.419Z,100413.00
2023-05-12T11:17:48.091Z,100411.00
2023-05-12T11:20:48.918Z,100415.00
2023-05-12T11:23:50.124Z,100415.00
2023-05-12T11:26:50.992Z,100419.00
2023-05-12T11:29:52.135Z,100419.00
2023-05-12T11:32:53.018Z,100419.00
2023-05-12T11:35:54.143Z,100415.00
2023-05-12T11:38:55.078Z,100415.00
2023-05-12T11:42:02.332Z,100415.00
2023-05-12T11:44:57.778Z,100421.00
2023-05-12T11:47:59.225Z,100425.00
2023-05-12T11:50:58.647Z,100425.00
2023-05-12T11:53:59.827Z,100427.00
2023-05-12T11:57:00.725Z,100431.00
2023-05-12T12:00:01.953Z,100425.00
2023-05-12T12:03:02.415Z,100429.00
2023-05-12T12:06:03.577Z,100431.00
2023-05-12T12:09:04.420Z,100434.00
2023-05-12T12:12:05.040Z,100438.00
2023-05-12T12:15:05.916Z,100442.00
2023-05-12T12:18:07.103Z,100448.00
2023-05-12T12:21:07.974Z,100456.00
2023-05-12T12:24:09.110Z,100460.00
2023-05-12T12:27:09.974Z,100458.00
2023-05-12T12:30:11.134Z,100460.00
2023-05-12T12:33:12.095Z,100462.00
2023-05-12T12:36:13.230Z,100458.00
2023-05-12T12:39:14.207Z,100458.00
2023-05-12T12:42:15.308Z,100464.00
2023-05-12T12:45:17.002Z,100464.00
2023-05-12T12:48:16.856Z,100464.00
2023-05-12T12:51:18.002Z,100464.00
2023-05-12T12:54:18.888Z,100466.00
2023-05-12T12:57:19.998Z,100464.00
2023-05-12T13:00:20.872Z,100464.00
2023-05-12T13:03:22.051Z,100468.00
2023-05-12T13:06:22.891Z,100462.00
2023-05-12T13:09:24.056Z,100466.00
2023-05-12T13:12:24.892Z,100468.00
2023-05-12T13:15:26.271Z,100468.00
2023-05-12T13:18:26.619Z,100472.00
2023-05-12T13:21:27.736Z,100466.00
2023-05-12T13:24:28.628Z,100468.00
2023-05-12T13:27:29.733Z,100472.00
2023-05-12T13:30:30.585Z,100462.00
2023-05-12T13:33:31.728Z,100470.00
2023-05-12T13:36:32.588Z,100462.00
2023-05-12T13:39:33.764Z,100464.00
2023-05-12T13:42:34.603Z,100468.00
2023-05-12T13:45:35.780Z,100460.00
2023-05-12T13:48:36.606Z,100462.00
2023-05-12T13:51:37.748Z,100460.00
2023-05-12T13:54:39.131Z,100462.00
2023-05-12T13:57:39.730Z,100462.00
2023-05-12T14:00:40.585Z,100462.00
2023-05-12T14:03:41.722Z,100460.00
2023-05-12T14:06:42.581Z,100468.00
2023-05-12T14:09:43.785Z,100475.00
2023-05-12T14:12:44.635Z,100472.00
2023-05-12T14:15:49.707Z,100470.00
2023-05-12T14:18:46.450Z,100468.00
2023-05-12T14:21:47.086Z,100468.00
2023-05-12T14:24:47.979Z,100462.00
2023-05-12T14:27:49.088Z,100470.00
2023-05-12T14:30:49.966Z,100479.00
2023-05-12T14:33:51.098Z,100477.00
2023-05-12T14:36:51.962Z,100477.00
2023-05-12T14:39:53.135Z,100481.00
2023-05-12T14:42:53.954Z,100473.00
2023-05-12T14:45:55.214Z,100470.00
2023-05-12T14:48:55.596Z,100470.00
2023-05-12T14:51:56.716Z,100472.00
2023-05-12T14:54:57.645Z,100473.00
2023-05-12T14:57:58.773Z,100477.00
2023-05-12T15:00:59.715Z,100485.00
2023-05-12T15:04:00.818Z,100487.00
2023-05-12T15:07:01.700Z,100481.00
2023-05-12T15:10:02.975Z,100479.00
2023-05-12T15:13:03.399Z,100479.00
2023-05-12T15:16:04.563Z,100473.00
2023-05-12T15:19:05.438Z,100477.00
2023-05-12T15:22:06.633Z,100475.00
2023-05-12T15:25:07.487Z,100477.00
2023-05-12T15:28:08.606Z,100489.00
2023-05-12T15:31:09.531Z,100475.00
2023-05-12T15:34:10.632Z,100475.00
2023-05-12T15:37:11.509Z,100479.00
2023-05-12T15:40:12.637Z,100483.00
2023-05-12T15:43:13.479Z,100479.00
2023-05-12T15:46:14.645Z,100481.00
2023-05-12T15:49:15.509Z,100475.00
2023-05-12T15:52:16.615Z,100477.00
2023-05-12T15:55:17.632Z,100481.00
2023-05-12T15:58:18.291Z,100491.00
2023-05-12T16:01:19.228Z,100483.00
2023-05-12T16:04:20.442Z,100487.00
2023-05-12T16:07:21.286Z,100497.00
2023-05-12T16:10:22.445Z,100489.00
2023-05-12T16:13:23.303Z,100489.00
2023-05-12T16:16:24.537Z,100491.00
2023-05-12T16:19:24.961Z,100485.00
2023-05-12T16:22:26.085Z,100479.00
2023-05-12T16:25:26.983Z,100487.00
2023-05-12T16:28:28.092Z,100481.00
2023-05-12T16:31:28.991Z,100477.00
2023-05-12T16:34:30.143Z,100483.00
2023-05-12T16:37:31.043Z,100487.00
2023-05-12T16:40:32.229Z,100479.00
2023-05-12T16:43:33.066Z,100493.00
2023-05-12T16:46:34.289Z,100487.00
2023-05-12T16:49:35.163Z,100483.00
2023-05-12T16:52:36.330Z,100485.00
2023-05-12T16:55:37.216Z,100483.00
2023-05-12T16:58:38.324Z,100485.00
2023-05-12T17:01:39.249Z,100491.00
2023-05-12T17:04:40.428Z,100497.00
2023-05-12T17:07:41.302Z,100503.00
2023-05-12T17:10:42.487Z,100511.00
2023-05-12T17:13:43.351Z,100509.00
2023-05-12T17:16:44.519Z,100517.00
2023-05-12T17:19:45.423Z,100519.00
2023-05-12T17:22:46.521Z,100522.00
2023-05-12T17:25:47.422Z,100526.00
2023-05-12T17:28:48.564Z,100528.00
2023-05-12T17:31:49.487Z,100524.00
2023-05-12T17:34:50.594Z,100530.00
2023-05-12T17:37:51.490Z,100524.00
2023-05-12T17:40:52.673Z,100522.00
2023-05-12T17:43:53.512Z,100528.00
2023-05-12T17:46:54.679Z,100519.00
2023-05-12T17:49:55.690Z,100524.00
2023-05-12T17:52:56.855Z,100528.00
2023-05-12T17:55:57.766Z,100528.00
2023-05-12T17:58:58.857Z,100534.00
2023-05-12T18:01:59.748Z,100528.00
2023-05-12T18:05:00.899Z,100532.00
2023-05-12T18:08:01.751Z,100536.00
2023-05-12T18:11:02.902Z,100532.00
2023-05-12T18:14:03.739Z,100536.00
2023-05-12T18:17:05.003Z,100534.00
2023-05-12T18:20:05.336Z,100536.00
2023-05-12T18:23:06.450Z,100540.00
2023-05-12T18:26:07.417Z,100544.00
2023-05-12T18:29:08.494Z,100552.00
2023-05-12T18:32:09.395Z,100550.00
2023-05-12T18:35:10.502Z,100550.00
2023-05-12T18:38:11.455Z,100554.00
2023-05-12T18:41:12.603Z,100558.00
2023-05-12T18:44:13.460Z,100566.00
2023-05-12T18:47:14.584Z,100568.00
2023-05-12T18:50:15.517Z,100570.00
2023-05-12T18:53:16.644Z,100576.00
2023-05-12T18:56:17.538Z,100578.00
2023-05-12T18:59:18.617Z,100584.00
2023-05-12T19:02:19.489Z,100584.00
2023-05-12T19:05:20.753Z,100594.00
2023-05-12T19:08:21.210Z,100605.00
2023-05-12T19:11:22.398Z,100607.00
2023-05-12T19:14:23.239Z,100609.00
2023-05-12T19:17:24.397Z,100609.00
2023-05-12T19:20:25.225Z,100615.00
2023-05-12T19:23:26.401Z,100617.00
2023-05-12T19:26:27.286Z,100621.00
2023-05-12T19:29:28.386Z,100625.00
2023-05-12T19:32:29.266Z,100625.00
2023-05-12T19:35:30.429Z,100629.00
2023-05-12T19:38:31.291Z,100627.00
2023-05-12T19:41:32.477Z,100629.00
2023-05-12T19:44:33.319Z,100642.00
2023-05-12T19:47:34.522Z,100644.00
2023-05-12T19:50:35.352Z,100646.00
2023-05-12T19:53:36.488Z,100648.00
2023-05-12T19:56:37.366Z,100650.00
2023-05-12T19:59:38.524Z,100652.00
2023-05-12T20:02:39.514Z,100654.00
2023-05-12T20:05:40.189Z,100656.00
2023-05-12T20:08:41.068Z,100656.00
2023-05-12T20:11:42.257Z,100652.00
2023-05-12T20:14:43.108Z,100652.00
2023-05-12T20:17:44.259Z,100654.00
2023-05-12T20:20:45.110Z,100656.00
2023-05-12T20:23:46.274Z,100660.00
2023-05-12T20:26:47.191Z,100662.00
2023-05-12T20:29:48.282Z,100666.00
2023-05-12T20:32:49.195Z,100670.00
2023-05-12T20:35:50.355Z,100674.00
2023-05-12T20:38:51.212Z,100674.00
2023-05-12T20:41:52.377Z,100672.00
2023-05-12T20:44:53.214Z,100672.00
2023-05-12T20:47:54.423Z,100676.00
2023-05-12T20:50:55.286Z,100674.00
2023-05-12T20:53:56.428Z,100674.00
2023-05-12T20:56:57.330Z,100676.00
2023-05-12T20:59:58.507Z,100676.00
2023-05-12T21:02:58.965Z,100683.00
2023-05-12T21:06:00.083Z,100678.00
2023-05-12T21:09:00.965Z,100678.00
2023-05-12T21:12:02.107Z,100674.00
2023-05-12T21:15:02.987Z,100678.00
2023-05-12T21:18:04.182Z,100674.00
2023-05-12T21:21:05.074Z,100676.00
2023-05-12T21:24:06.198Z,100676.00
2023-05-12T21:27:07.176Z,100678.00
2023-05-12T21:30:08.304Z,100682.00
2023-05-12T21:33:09.224Z,100680.00
2023-05-12T21:36:10.358Z,100682.00
2023-05-12T21:39:11.264Z,100683.00
2023-05-12T21:42:12.418Z,100683.00
2023-05-12T21:45:13.310Z,100691.00
2023-05-12T21:48:14.433Z,100693.00
2023-05-12T21:51:15.366Z,100685.00
2023-05-12T21:54:16.492Z,100687.00
2023-05-12T21:57:17.411Z,100685.00
2023-05-12T22:00:18.553Z,100683.00
2023-05-12T22:03:19.098Z,100689.00
2023-05-12T22:06:20.212Z,100683.00
2023-05-12T22:09:21.091Z,100689.00
2023-05-12T22:12:22.279Z,100691.00
2023-05-12T22:15:23.174Z,100691.00
2023-05-12T22:18:24.402Z,100695.00
2023-05-12T22:21:25.263Z,100697.00
2023-05-12T22:24:26.496Z,100699.00
2023-05-12T22:27:26.902Z,100703.00
2023-05-12T22:30:27.772Z,100705.00
2023-05-12T22:33:28.409Z,100705.00
2023-05-12T22:36:29.336Z,100705.00
2023-05-12T22:39:30.502Z,100701.00
2023-05-12T22:42:31.379Z,100699.00
2023-05-12T22:45:32.482Z,100703.00
2023-05-12T22:48:38.691Z,100705.00
2023-05-12T22:51:34.928Z,100701.00
2023-05-12T22:54:35.053Z,100705.00
2023-05-12T22:57:35.955Z,100699.00
2023-05-12T23:00:37.172Z,100697.00
2023-05-12T23:03:38.048Z,100691.00
2023-05-12T23:06:39.177Z,100687.00
2023-05-12T23:09:40.072Z,100683.00
2023-05-12T23:12:41.234Z,100687.00
2023-05-12T23:15:42.157Z,100689.00
2023-05-12T23:18:43.335Z,100691.00
2023-05-12T23:21:44.254Z,100687.00
2023-05-12T23:24:45.378Z,100687.00
2023-05-12T23:27:46.301Z,100682.00
2023-05-12T23:30:47.471Z,100685.00
2023-05-12T23:33:48.407Z,100682.00
2023-05-12T23:36:49.533Z,100683.00
2023-05-12T23:39:50.409Z,100682.00
2023-05-12T23:42:51.613Z,100682.00
2023-05-12T23:45:52.492Z,100683.00
2023-05-12T23:48:53.658Z,100683.00
2023-05-12T23:51:54.533Z,100682.00
2023-05-12T23:54:55.691Z,100685.00
2023-05-12T23:57:56.652Z,100683.00
